sensor_id;sensor_type;location;lat;lon;timestamp;P1;durP1;ratioP1;P2;durP2;ratioP2
29504;SDS011;16452;54.174;12.092;2022-12-24T00:02:17;11.27;;;4.95;;
29504;SDS011;16452;54.174;12.092;2022-12-24T00:04:44;9.00;;;4.03;;
29504;SDS011;16452;54.174;12.092;2022-12-24T00:07:10;10.48;;;4.50;;
29504;SDS011;16452;54.174;12.092;2022-12-24T00:09:36;9.98;;;4.65;;
29504;SDS011;16452;54.174;12.092;2022-12-24T00:12:02;7.72;;;4.18;;
29504;SDS011;16452;54.174;12.092;2022-12-24T00:14:29;11.48;;;4.70;;
29504;SDS011;16452;54.174;12.092;2022-12-24T00:16:54;9.05;;;4.50;;
29504;SDS011;16452;54.174;12.092;2022-12-24T00:19:20;8.70;;;4.70;;
29504;SDS011;16452;54.174;12.092;2022-12-24T00:21:46;10.63;;;4.53;;
29504;SDS011;16452;54.174;12.092;2022-12-24T00:24:12;9.18;;;4.55;;
29504;SDS011;16452;54.174;12.092;2022-12-24T00:26:38;13.35;;;4.95;;
29504;SDS011;16452;54.174;12.092;2022-12-24T00:29:04;8.43;;;5.05;;
29504;SDS011;16452;54.174;12.092;2022-12-24T00:31:29;12.57;;;5.28;;
29504;SDS011;16452;54.174;12.092;2022-12-24T00:33:55;9.57;;;5.30;;
29504;SDS011;16452;54.174;12.092;2022-12-24T00:36:21;10.40;;;5.10;;
29504;SDS011;16452;54.174;12.092;2022-12-24T00:38:47;10.88;;;4.32;;
29504;SDS011;16452;54.174;12.092;2022-12-24T00:41:13;11.82;;;4.88;;
29504;SDS011;16452;54.174;12.092;2022-12-24T00:46:24;14.68;;;4.97;;
29504;SDS011;16452;54.174;12.092;2022-12-24T00:48:51;11.20;;;4.55;;
29504;SDS011;16452;54.174;12.092;2022-12-24T00:51:18;11.13;;;4.30;;
29504;SDS011;16452;54.174;12.092;2022-12-24T00:53:44;11.80;;;4.78;;
29504;SDS011;16452;54.174;12.092;2022-12-24T00:56:10;11.88;;;4.40;;
29504;SDS011;16452;54.174;12.092;2022-12-24T00:58:36;12.65;;;4.45;;
29504;SDS011;16452;54.174;12.092;2022-12-24T01:01:02;8.20;;;5.40;;
29504;SDS011;16452;54.174;12.092;2022-12-24T01:03:28;10.10;;;4.72;;
29504;SDS011;16452;54.174;12.092;2022-12-24T01:06:00;9.98;;;4.47;;
29504;SDS011;16452;54.174;12.092;2022-12-24T01:08:28;10.32;;;4.10;;
29504;SDS011;16452;54.174;12.092;2022-12-24T01:10:54;8.77;;;3.85;;
29504;SDS011;16452;54.174;12.092;2022-12-24T01:13:20;8.88;;;4.18;;
29504;SDS011;16452;54.174;12.092;2022-12-24T01:15:45;9.80;;;3.90;;
29504;SDS011;16452;54.174;12.092;2022-12-24T01:18:11;11.27;;;3.72;;
29504;SDS011;16452;54.174;12.092;2022-12-24T01:20:37;6.80;;;3.63;;
29504;SDS011;16452;54.174;12.092;2022-12-24T01:23:03;7.90;;;3.80;;
29504;SDS011;16452;54.174;12.092;2022-12-24T01:25:28;10.88;;;3.42;;
29504;SDS011;16452;54.174;12.092;2022-12-24T01:27:54;7.97;;;3.72;;
29504;SDS011;16452;54.174;12.092;2022-12-24T01:30:20;7.72;;;3.83;;
29504;SDS011;16452;54.174;12.092;2022-12-24T01:32:46;9.02;;;3.63;;
29504;SDS011;16452;54.174;12.092;2022-12-24T01:35:11;6.15;;;3.50;;
29504;SDS011;16452;54.174;12.092;2022-12-24T01:37:37;7.85;;;3.95;;
29504;SDS011;16452;54.174;12.092;2022-12-24T01:40:04;12.38;;;4.22;;
29504;SDS011;16452;54.174;12.092;2022-12-24T01:43:04;10.07;;;3.72;;
29504;SDS011;16452;54.174;12.092;2022-12-24T01:45:48;9.38;;;3.83;;
29504;SDS011;16452;54.174;12.092;2022-12-24T01:54:08;11.52;;;4.15;;
29504;SDS011;16452;54.174;12.092;2022-12-24T01:56:39;6.95;;;3.25;;
29504;SDS011;16452;54.174;12.092;2022-12-24T01:59:15;7.25;;;3.53;;
29504;SDS011;16452;54.174;12.092;2022-12-24T02:01:45;9.20;;;3.38;;
29504;SDS011;16452;54.174;12.092;2022-12-24T02:04:36;6.70;;;3.40;;
29504;SDS011;16452;54.174;12.092;2022-12-24T02:07:12;9.63;;;3.95;;
29504;SDS011;16452;54.174;12.092;2022-12-24T02:09:38;7.85;;;3.08;;
29504;SDS011;16452;54.174;12.092;2022-12-24T02:12:04;9.77;;;3.72;;
29504;SDS011;16452;54.174;12.092;2022-12-24T02:14:31;8.85;;;3.67;;
29504;SDS011;16452;54.174;12.092;2022-12-24T02:17:19;9.35;;;3.58;;
29504;SDS011;16452;54.174;12.092;2022-12-24T02:26:10;6.47;;;3.20;;
29504;SDS011;16452;54.174;12.092;2022-12-24T02:32:08;10.90;;;3.40;;
29504;SDS011;16452;54.174;12.092;2022-12-24T02:35:03;7.65;;;3.13;;
29504;SDS011;16452;54.174;12.092;2022-12-24T02:37:43;7.82;;;3.60;;
29504;SDS011;16452;54.174;12.092;2022-12-24T02:40:28;10.27;;;3.95;;
29504;SDS011;16452;54.174;12.092;2022-12-24T02:43:03;9.75;;;3.90;;
29504;SDS011;16452;54.174;12.092;2022-12-24T02:45:36;13.10;;;3.97;;
29504;SDS011;16452;54.174;12.092;2022-12-24T02:48:07;6.10;;;3.60;;
29504;SDS011;16452;54.174;12.092;2022-12-24T02:50:34;7.22;;;4.03;;
29504;SDS011;16452;54.174;12.092;2022-12-24T02:53:00;6.35;;;3.88;;
29504;SDS011;16452;54.174;12.092;2022-12-24T03:01:16;8.77;;;4.50;;
29504;SDS011;16452;54.174;12.092;2022-12-24T03:07:20;7.70;;;3.88;;
29504;SDS011;16452;54.174;12.092;2022-12-24T03:12:55;7.47;;;4.20;;
29504;SDS011;16452;54.174;12.092;2022-12-24T03:15:26;10.57;;;4.32;;
29504;SDS011;16452;54.174;12.092;2022-12-24T03:17:56;9.05;;;4.18;;
29504;SDS011;16452;54.174;12.092;2022-12-24T03:20:27;10.55;;;4.05;;
29504;SDS011;16452;54.174;12.092;2022-12-24T03:23:01;9.25;;;4.53;;
29504;SDS011;16452;54.174;12.092;2022-12-24T03:25:27;7.88;;;4.20;;
29504;SDS011;16452;54.174;12.092;2022-12-24T03:27:54;6.45;;;4.47;;
29504;SDS011;16452;54.174;12.092;2022-12-24T03:30:21;8.45;;;4.55;;
29504;SDS011;16452;54.174;12.092;2022-12-24T03:32:47;8.10;;;4.30;;
29504;SDS011;16452;54.174;12.092;2022-12-24T03:35:13;8.93;;;4.78;;
29504;SDS011;16452;54.174;12.092;2022-12-24T03:37:38;10.10;;;4.78;;
29504;SDS011;16452;54.174;12.092;2022-12-24T03:40:05;14.13;;;5.25;;
29504;SDS011;16452;54.174;12.092;2022-12-24T03:42:31;9.77;;;4.72;;
29504;SDS011;16452;54.174;12.092;2022-12-24T03:44:57;8.65;;;4.60;;
29504;SDS011;16452;54.174;12.092;2022-12-24T03:47:23;8.05;;;4.60;;
29504;SDS011;16452;54.174;12.092;2022-12-24T03:49:48;12.13;;;4.95;;
29504;SDS011;16452;54.174;12.092;2022-12-24T03:52:14;7.88;;;4.93;;
29504;SDS011;16452;54.174;12.092;2022-12-24T03:54:40;12.50;;;5.15;;
29504;SDS011;16452;54.174;12.092;2022-12-24T03:57:05;11.90;;;5.28;;
29504;SDS011;16452;54.174;12.092;2022-12-24T03:59:31;11.00;;;5.13;;
29504;SDS011;16452;54.174;12.092;2022-12-24T04:02:00;11.18;;;4.75;;
29504;SDS011;16452;54.174;12.092;2022-12-24T04:04:25;10.13;;;4.90;;
29504;SDS011;16452;54.174;12.092;2022-12-24T04:06:51;12.07;;;4.88;;
29504;SDS011;16452;54.174;12.092;2022-12-24T04:09:17;8.18;;;4.72;;
29504;SDS011;16452;54.174;12.092;2022-12-24T04:11:42;11.50;;;5.10;;
29504;SDS011;16452;54.174;12.092;2022-12-24T04:14:08;11.23;;;4.82;;
29504;SDS011;16452;54.174;12.092;2022-12-24T04:16:34;8.10;;;4.28;;
29504;SDS011;16452;54.174;12.092;2022-12-24T04:19:00;10.63;;;5.32;;
29504;SDS011;16452;54.174;12.092;2022-12-24T04:21:25;10.23;;;5.20;;
29504;SDS011;16452;54.174;12.092;2022-12-24T04:23:51;12.00;;;5.50;;
29504;SDS011;16452;54.174;12.092;2022-12-24T04:26:17;10.93;;;5.45;;
29504;SDS011;16452;54.174;12.092;2022-12-24T04:28:42;7.72;;;5.38;;
29504;SDS011;16452;54.174;12.092;2022-12-24T04:31:10;10.95;;;5.43;;
29504;SDS011;16452;54.174;12.092;2022-12-24T04:33:38;11.30;;;6.05;;
29504;SDS011;16452;54.174;12.092;2022-12-24T04:36:04;12.07;;;5.53;;
29504;SDS011;16452;54.174;12.092;2022-12-24T04:38:31;9.32;;;5.38;;
29504;SDS011;16452;54.174;12.092;2022-12-24T04:41:02;8.48;;;5.82;;
29504;SDS011;16452;54.174;12.092;2022-12-24T04:43:31;15.50;;;10.55;;
29504;SDS011;16452;54.174;12.092;2022-12-24T04:46:04;12.40;;;8.40;;
29504;SDS011;16452;54.174;12.092;2022-12-24T04:48:33;13.82;;;6.18;;
29504;SDS011;16452;54.174;12.092;2022-12-24T04:51:01;11.48;;;5.63;;
29504;SDS011;16452;54.174;12.092;2022-12-24T04:53:28;12.45;;;5.70;;
29504;SDS011;16452;54.174;12.092;2022-12-24T04:55:55;14.75;;;5.78;;
29504;SDS011;16452;54.174;12.092;2022-12-24T04:58:21;10.20;;;6.22;;
29504;SDS011;16452;54.174;12.092;2022-12-24T05:00:48;13.02;;;6.20;;
29504;SDS011;16452;54.174;12.092;2022-12-24T05:03:13;10.68;;;5.68;;
29504;SDS011;16452;54.174;12.092;2022-12-24T05:05:39;9.90;;;5.38;;
29504;SDS011;16452;54.174;12.092;2022-12-24T05:08:05;10.63;;;5.05;;
29504;SDS011;16452;54.174;12.092;2022-12-24T05:10:31;10.48;;;5.60;;
29504;SDS011;16452;54.174;12.092;2022-12-24T05:12:56;7.80;;;5.50;;
29504;SDS011;16452;54.174;12.092;2022-12-24T05:15:22;13.52;;;5.88;;
29504;SDS011;16452;54.174;12.092;2022-12-24T05:17:48;10.52;;;5.75;;
29504;SDS011;16452;54.174;12.092;2022-12-24T05:20:14;11.88;;;5.68;;
29504;SDS011;16452;54.174;12.092;2022-12-24T05:22:40;10.65;;;5.25;;
29504;SDS011;16452;54.174;12.092;2022-12-24T05:25:33;10.73;;;5.50;;
29504;SDS011;16452;54.174;12.092;2022-12-24T05:28:21;8.63;;;5.25;;
29504;SDS011;16452;54.174;12.092;2022-12-24T05:30:48;8.70;;;5.43;;
29504;SDS011;16452;54.174;12.092;2022-12-24T05:33:14;11.57;;;5.60;;
29504;SDS011;16452;54.174;12.092;2022-12-24T05:35:41;8.10;;;5.72;;
29504;SDS011;16452;54.174;12.092;2022-12-24T05:38:06;16.85;;;6.03;;
29504;SDS011;16452;54.174;12.092;2022-12-24T05:40:32;8.57;;;5.70;;
29504;SDS011;16452;54.174;12.092;2022-12-24T05:42:58;9.90;;;5.03;;
29504;SDS011;16452;54.174;12.092;2022-12-24T05:45:24;11.73;;;6.38;;
29504;SDS011;16452;54.174;12.092;2022-12-24T05:47:49;9.90;;;5.28;;
29504;SDS011;16452;54.174;12.092;2022-12-24T05:50:15;10.80;;;5.15;;
29504;SDS011;16452;54.174;12.092;2022-12-24T05:52:41;6.95;;;5.30;;
29504;SDS011;16452;54.174;12.092;2022-12-24T05:55:07;11.18;;;5.38;;
29504;SDS011;16452;54.174;12.092;2022-12-24T05:57:33;8.60;;;6.05;;
29504;SDS011;16452;54.174;12.092;2022-12-24T05:59:59;12.55;;;5.53;;
29504;SDS011;16452;54.174;12.092;2022-12-24T06:02:24;13.88;;;5.45;;
29504;SDS011;16452;54.174;12.092;2022-12-24T06:04:53;10.43;;;5.78;;
29504;SDS011;16452;54.174;12.092;2022-12-24T06:07:19;12.07;;;5.63;;
29504;SDS011;16452;54.174;12.092;2022-12-24T06:09:45;8.90;;;5.20;;
29504;SDS011;16452;54.174;12.092;2022-12-24T06:12:10;7.30;;;5.10;;
29504;SDS011;16452;54.174;12.092;2022-12-24T06:14:36;9.52;;;5.43;;
29504;SDS011;16452;54.174;12.092;2022-12-24T06:17:02;9.57;;;4.70;;
29504;SDS011;16452;54.174;12.092;2022-12-24T06:19:27;8.18;;;4.53;;
29504;SDS011;16452;54.174;12.092;2022-12-24T06:21:53;6.13;;;4.85;;
29504;SDS011;16452;54.174;12.092;2022-12-24T06:24:19;7.75;;;4.60;;
29504;SDS011;16452;54.174;12.092;2022-12-24T06:26:44;6.18;;;4.95;;
29504;SDS011;16452;54.174;12.092;2022-12-24T06:29:10;9.07;;;5.03;;
29504;SDS011;16452;54.174;12.092;2022-12-24T06:31:36;12.85;;;5.03;;
29504;SDS011;16452;54.174;12.092;2022-12-24T06:34:02;6.78;;;4.43;;
29504;SDS011;16452;54.174;12.092;2022-12-24T06:36:27;7.68;;;4.32;;
29504;SDS011;16452;54.174;12.092;2022-12-24T06:38:53;5.38;;;4.43;;
29504;SDS011;16452;54.174;12.092;2022-12-24T06:41:19;16.65;;;4.93;;
29504;SDS011;16452;54.174;12.092;2022-12-24T06:43:46;7.20;;;4.30;;
29504;SDS011;16452;54.174;12.092;2022-12-24T06:46:14;8.98;;;4.53;;
29504;SDS011;16452;54.174;12.092;2022-12-24T06:48:41;9.90;;;4.57;;
29504;SDS011;16452;54.174;12.092;2022-12-24T06:51:09;9.10;;;4.43;;
29504;SDS011;16452;54.174;12.092;2022-12-24T06:53:35;7.68;;;4.25;;
29504;SDS011;16452;54.174;12.092;2022-12-24T06:56:09;6.25;;;4.10;;
29504;SDS011;16452;54.174;12.092;2022-12-24T06:58:37;5.47;;;4.15;;
29504;SDS011;16452;54.174;12.092;2022-12-24T07:01:05;6.18;;;3.83;;
29504;SDS011;16452;54.174;12.092;2022-12-24T07:03:39;6.40;;;3.75;;
29504;SDS011;16452;54.174;12.092;2022-12-24T07:06:23;6.70;;;4.05;;
29504;SDS011;16452;54.174;12.092;2022-12-24T07:08:50;6.85;;;3.90;;
29504;SDS011;16452;54.174;12.092;2022-12-24T07:11:17;7.00;;;3.80;;
29504;SDS011;16452;54.174;12.092;2022-12-24T07:13:43;8.05;;;4.30;;
29504;SDS011;16452;54.174;12.092;2022-12-24T07:16:10;8.40;;;4.00;;
29504;SDS011;16452;54.174;12.092;2022-12-24T07:18:36;6.20;;;3.88;;
29504;SDS011;16452;54.174;12.092;2022-12-24T07:21:05;7.47;;;4.25;;
29504;SDS011;16452;54.174;12.092;2022-12-24T07:23:31;9.88;;;4.05;;
29504;SDS011;16452;54.174;12.092;2022-12-24T07:25:59;8.10;;;3.67;;
29504;SDS011;16452;54.174;12.092;2022-12-24T07:28:29;6.07;;;3.95;;
29504;SDS011;16452;54.174;12.092;2022-12-24T07:30:56;5.45;;;3.80;;
29504;SDS011;16452;54.174;12.092;2022-12-24T07:33:22;10.10;;;4.65;;
29504;SDS011;16452;54.174;12.092;2022-12-24T07:35:56;5.20;;;4.13;;
29504;SDS011;16452;54.174;12.092;2022-12-24T07:38:29;7.45;;;3.90;;
29504;SDS011;16452;54.174;12.092;2022-12-24T07:40:56;7.18;;;4.05;;
29504;SDS011;16452;54.174;12.092;2022-12-24T07:43:22;8.10;;;3.38;;
29504;SDS011;16452;54.174;12.092;2022-12-24T07:45:48;10.88;;;3.72;;
29504;SDS011;16452;54.174;12.092;2022-12-24T07:48:14;5.07;;;3.85;;
29504;SDS011;16452;54.174;12.092;2022-12-24T07:50:41;8.63;;;4.20;;
29504;SDS011;16452;54.174;12.092;2022-12-24T07:53:07;5.72;;;3.72;;
29504;SDS011;16452;54.174;12.092;2022-12-24T07:55:32;6.10;;;4.05;;
29504;SDS011;16452;54.174;12.092;2022-12-24T07:57:59;9.80;;;4.22;;
29504;SDS011;16452;54.174;12.092;2022-12-24T08:00:25;9.88;;;4.05;;
29504;SDS011;16452;54.174;12.092;2022-12-24T08:02:50;8.05;;;4.38;;
29504;SDS011;16452;54.174;12.092;2022-12-24T08:05:16;6.28;;;3.97;;
29504;SDS011;16452;54.174;12.092;2022-12-24T08:07:42;5.45;;;3.95;;
29504;SDS011;16452;54.174;12.092;2022-12-24T08:10:08;6.10;;;4.13;;
29504;SDS011;16452;54.174;12.092;2022-12-24T08:12:34;8.55;;;4.53;;
29504;SDS011;16452;54.174;12.092;2022-12-24T08:14:59;6.85;;;3.88;;
29504;SDS011;16452;54.174;12.092;2022-12-24T08:17:25;7.55;;;4.20;;
29504;SDS011;16452;54.174;12.092;2022-12-24T08:19:51;8.48;;;4.60;;
29504;SDS011;16452;54.174;12.092;2022-12-24T08:22:16;8.45;;;3.50;;
29504;SDS011;16452;54.174;12.092;2022-12-24T08:24:42;7.72;;;4.00;;
29504;SDS011;16452;54.174;12.092;2022-12-24T08:27:08;6.53;;;3.55;;
29504;SDS011;16452;54.174;12.092;2022-12-24T08:29:33;6.10;;;4.10;;
29504;SDS011;16452;54.174;12.092;2022-12-24T08:31:59;6.35;;;3.78;;
29504;SDS011;16452;54.174;12.092;2022-12-24T08:34:25;7.85;;;4.10;;
29504;SDS011;16452;54.174;12.092;2022-12-24T08:36:51;6.63;;;4.32;;
29504;SDS011;16452;54.174;12.092;2022-12-24T08:39:16;10.98;;;3.72;;
29504;SDS011;16452;54.174;12.092;2022-12-24T08:41:42;6.28;;;3.53;;
29504;SDS011;16452;54.174;12.092;2022-12-24T08:44:08;7.85;;;4.10;;
29504;SDS011;16452;54.174;12.092;2022-12-24T08:46:33;5.80;;;3.70;;
29504;SDS011;16452;54.174;12.092;2022-12-24T08:48:59;5.72;;;3.85;;
29504;SDS011;16452;54.174;12.092;2022-12-24T08:51:25;6.05;;;3.50;;
29504;SDS011;16452;54.174;12.092;2022-12-24T08:53:50;7.13;;;3.53;;
29504;SDS011;16452;54.174;12.092;2022-12-24T08:56:16;9.15;;;4.13;;
29504;SDS011;16452;54.174;12.092;2022-12-24T08:58:42;5.00;;;3.53;;
29504;SDS011;16452;54.174;12.092;2022-12-24T09:01:17;7.70;;;3.90;;
29504;SDS011;16452;54.174;12.092;2022-12-24T09:03:44;6.13;;;3.90;;
29504;SDS011;16452;54.174;12.092;2022-12-24T09:06:11;6.65;;;3.30;;
29504;SDS011;16452;54.174;12.092;2022-12-24T09:08:37;8.15;;;3.70;;
29504;SDS011;16452;54.174;12.092;2022-12-24T09:11:07;9.98;;;4.53;;
29504;SDS011;16452;54.174;12.092;2022-12-24T09:13:39;6.45;;;3.80;;
29504;SDS011;16452;54.174;12.092;2022-12-24T09:16:05;7.75;;;3.90;;
29504;SDS011;16452;54.174;12.092;2022-12-24T09:18:32;10.52;;;4.10;;
29504;SDS011;16452;54.174;12.092;2022-12-24T09:21:02;9.20;;;3.95;;
29504;SDS011;16452;54.174;12.092;2022-12-24T09:23:33;8.60;;;4.00;;
29504;SDS011;16452;54.174;12.092;2022-12-24T09:26:13;5.85;;;3.88;;
29504;SDS011;16452;54.174;12.092;2022-12-24T09:28:45;7.00;;;4.13;;
29504;SDS011;16452;54.174;12.092;2022-12-24T09:31:11;8.65;;;3.97;;
29504;SDS011;16452;54.174;12.092;2022-12-24T09:33:38;6.95;;;4.10;;
29504;SDS011;16452;54.174;12.092;2022-12-24T09:36:06;7.72;;;4.03;;
29504;SDS011;16452;54.174;12.092;2022-12-24T09:38:33;7.68;;;4.03;;
29504;SDS011;16452;54.174;12.092;2022-12-24T09:41:00;8.80;;;4.07;;
29504;SDS011;16452;54.174;12.092;2022-12-24T09:43:34;8.52;;;4.28;;
29504;SDS011;16452;54.174;12.092;2022-12-24T09:46:08;9.88;;;4.13;;
29504;SDS011;16452;54.174;12.092;2022-12-24T09:49:02;5.25;;;3.63;;
29504;SDS011;16452;54.174;12.092;2022-12-24T09:51:42;6.55;;;3.53;;
29504;SDS011;16452;54.174;12.092;2022-12-24T09:54:17;8.27;;;3.97;;
29504;SDS011;16452;54.174;12.092;2022-12-24T09:57:06;6.38;;;3.90;;
29504;SDS011;16452;54.174;12.092;2022-12-24T09:59:42;5.07;;;3.40;;
29504;SDS011;16452;54.174;12.092;2022-12-24T10:02:11;7.63;;;3.95;;
29504;SDS011;16452;54.174;12.092;2022-12-24T10:04:43;7.57;;;3.70;;
29504;SDS011;16452;54.174;12.092;2022-12-24T10:09:58;6.65;;;3.83;;
29504;SDS011;16452;54.174;12.092;2022-12-24T10:13:07;6.45;;;4.13;;
29504;SDS011;16452;54.174;12.092;2022-12-24T10:24:34;7.03;;;3.70;;
29504;SDS011;16452;54.174;12.092;2022-12-24T10:27:18;4.57;;;3.53;;
29504;SDS011;16452;54.174;12.092;2022-12-24T10:29:49;9.63;;;4.00;;
29504;SDS011;16452;54.174;12.092;2022-12-24T10:32:31;9.95;;;4.15;;
29504;SDS011;16452;54.174;12.092;2022-12-24T10:37:39;6.78;;;3.20;;
29504;SDS011;16452;54.174;12.092;2022-12-24T10:40:11;6.85;;;3.92;;
29504;SDS011;16452;54.174;12.092;2022-12-24T10:42:48;6.80;;;3.60;;
29504;SDS011;16452;54.174;12.092;2022-12-24T10:45:15;7.03;;;4.07;;
29504;SDS011;16452;54.174;12.092;2022-12-24T10:47:44;8.00;;;4.22;;
29504;SDS011;16452;54.174;12.092;2022-12-24T10:50:23;6.85;;;4.15;;
29504;SDS011;16452;54.174;12.092;2022-12-24T10:52:54;7.30;;;4.22;;
29504;SDS011;16452;54.174;12.092;2022-12-24T10:55:46;9.98;;;4.15;;
29504;SDS011;16452;54.174;12.092;2022-12-24T10:58:14;7.55;;;4.20;;
29504;SDS011;16452;54.174;12.092;2022-12-24T11:00:49;7.05;;;4.07;;
29504;SDS011;16452;54.174;12.092;2022-12-24T11:05:43;8.07;;;4.47;;
29504;SDS011;16452;54.174;12.092;2022-12-24T11:10:39;14.40;;;4.93;;
29504;SDS011;16452;54.174;12.092;2022-12-24T11:13:23;9.13;;;4.10;;
29504;SDS011;16452;54.174;12.092;2022-12-24T11:16:01;6.60;;;3.97;;
29504;SDS011;16452;54.174;12.092;2022-12-24T11:18:29;10.68;;;4.50;;
29504;SDS011;16452;54.174;12.092;2022-12-24T11:20:58;9.77;;;3.78;;
29504;SDS011;16452;54.174;12.092;2022-12-24T11:23:25;5.57;;;3.53;;
29504;SDS011;16452;54.174;12.092;2022-12-24T11:25:53;9.57;;;4.40;;
29504;SDS011;16452;54.174;12.092;2022-12-24T11:31:02;6.47;;;3.63;;
29504;SDS011;16452;54.174;12.092;2022-12-24T11:33:46;7.07;;;3.65;;
29504;SDS011;16452;54.174;12.092;2022-12-24T11:36:14;7.57;;;3.83;;
29504;SDS011;16452;54.174;12.092;2022-12-24T11:38:51;5.10;;;3.22;;
29504;SDS011;16452;54.174;12.092;2022-12-24T11:41:18;7.75;;;3.72;;
29504;SDS011;16452;54.174;12.092;2022-12-24T11:43:45;5.82;;;3.70;;
29504;SDS011;16452;54.174;12.092;2022-12-24T11:46:19;8.02;;;3.83;;
29504;SDS011;16452;54.174;12.092;2022-12-24T11:51:36;7.20;;;3.63;;
29504;SDS011;16452;54.174;12.092;2022-12-24T11:54:15;7.20;;;3.60;;
29504;SDS011;16452;54.174;12.092;2022-12-24T11:56:52;5.38;;;3.20;;
29504;SDS011;16452;54.174;12.092;2022-12-24T11:59:36;5.15;;;3.50;;
29504;SDS011;16452;54.174;12.092;2022-12-24T12:02:18;9.60;;;3.70;;
29504;SDS011;16452;54.174;12.092;2022-12-24T12:04:59;5.43;;;3.20;;
29504;SDS011;16452;54.174;12.092;2022-12-24T12:07:34;8.15;;;4.03;;
29504;SDS011;16452;54.174;12.092;2022-12-24T12:10:04;8.10;;;4.45;;
29504;SDS011;16452;54.174;12.092;2022-12-24T12:15:36;8.43;;;4.25;;
29504;SDS011;16452;54.174;12.092;2022-12-24T12:20:49;7.63;;;4.18;;
29504;SDS011;16452;54.174;12.092;2022-12-24T12:23:30;8.13;;;4.13;;
29504;SDS011;16452;54.174;12.092;2022-12-24T12:26:12;8.35;;;4.25;;
29504;SDS011;16452;54.174;12.092;2022-12-24T12:28:57;6.30;;;3.83;;
29504;SDS011;16452;54.174;12.092;2022-12-24T12:31:36;6.03;;;3.70;;
29504;SDS011;16452;54.174;12.092;2022-12-24T12:37:40;10.88;;;4.47;;
29504;SDS011;16452;54.174;12.092;2022-12-24T12:40:16;11.73;;;4.60;;
29504;SDS011;16452;54.174;12.092;2022-12-24T12:42:45;8.57;;;4.28;;
29504;SDS011;16452;54.174;12.092;2022-12-24T12:46:00;11.25;;;4.80;;
29504;SDS011;16452;54.174;12.092;2022-12-24T12:48:43;7.47;;;4.45;;
29504;SDS011;16452;54.174;12.092;2022-12-24T12:51:34;7.53;;;4.65;;
29504;SDS011;16452;54.174;12.092;2022-12-24T12:57:06;12.15;;;4.82;;
29504;SDS011;16452;54.174;12.092;2022-12-24T12:59:43;12.02;;;4.82;;
29504;SDS011;16452;54.174;12.092;2022-12-24T13:08:27;7.70;;;4.28;;
29504;SDS011;16452;54.174;12.092;2022-12-24T13:11:40;9.25;;;4.18;;
29504;SDS011;16452;54.174;12.092;2022-12-24T13:15:07;8.80;;;3.97;;
29504;SDS011;16452;54.174;12.092;2022-12-24T13:18:15;9.40;;;4.07;;
29504;SDS011;16452;54.174;12.092;2022-12-24T13:21:22;8.85;;;3.90;;
29504;SDS011;16452;54.174;12.092;2022-12-24T13:24:03;6.40;;;4.13;;
29504;SDS011;16452;54.174;12.092;2022-12-24T13:26:37;9.80;;;4.57;;
29504;SDS011;16452;54.174;12.092;2022-12-24T13:29:28;7.28;;;3.90;;
29504;SDS011;16452;54.174;12.092;2022-12-24T13:37:48;8.05;;;4.50;;
29504;SDS011;16452;54.174;12.092;2022-12-24T13:40:16;8.15;;;4.60;;
29504;SDS011;16452;54.174;12.092;2022-12-24T13:47:55;10.35;;;5.32;;
29504;SDS011;16452;54.174;12.092;2022-12-24T13:56:25;9.57;;;5.30;;
29504;SDS011;16452;54.174;12.092;2022-12-24T13:59:08;10.77;;;6.05;;
29504;SDS011;16452;54.174;12.092;2022-12-24T14:01:42;7.82;;;5.55;;
29504;SDS011;16452;54.174;12.092;2022-12-24T14:04:09;9.30;;;5.47;;
29504;SDS011;16452;54.174;12.092;2022-12-24T14:06:52;11.90;;;6.05;;
29504;SDS011;16452;54.174;12.092;2022-12-24T14:09:22;8.90;;;5.75;;
29504;SDS011;16452;54.174;12.092;2022-12-24T14:14:30;9.20;;;5.20;;
29504;SDS011;16452;54.174;12.092;2022-12-24T14:17:13;11.13;;;5.75;;
29504;SDS011;16452;54.174;12.092;2022-12-24T14:19:51;10.57;;;5.25;;
29504;SDS011;16452;54.174;12.092;2022-12-24T14:22:39;11.15;;;5.95;;
29504;SDS011;16452;54.174;12.092;2022-12-24T14:25:16;11.20;;;5.60;;
29504;SDS011;16452;54.174;12.092;2022-12-24T14:27:48;16.05;;;6.00;;
29504;SDS011;16452;54.174;12.092;2022-12-24T14:30:35;8.50;;;5.00;;
29504;SDS011;16452;54.174;12.092;2022-12-24T14:33:01;8.20;;;5.72;;
29504;SDS011;16452;54.174;12.092;2022-12-24T14:35:28;9.82;;;5.80;;
29504;SDS011;16452;54.174;12.092;2022-12-24T14:38:02;11.95;;;5.93;;
29504;SDS011;16452;54.174;12.092;2022-12-24T14:40:48;8.60;;;5.72;;
29504;SDS011;16452;54.174;12.092;2022-12-24T14:46:06;10.15;;;6.15;;
29504;SDS011;16452;54.174;12.092;2022-12-24T14:48:51;10.30;;;5.57;;
29504;SDS011;16452;54.174;12.092;2022-12-24T14:54:34;12.60;;;6.68;;
29504;SDS011;16452;54.174;12.092;2022-12-24T14:59:57;11.40;;;6.22;;
29504;SDS011;16452;54.174;12.092;2022-12-24T15:07:45;9.50;;;5.45;;
29504;SDS011;16452;54.174;12.092;2022-12-24T15:10:24;11.88;;;6.40;;
29504;SDS011;16452;54.174;12.092;2022-12-24T15:12:53;12.48;;;6.00;;
29504;SDS011;16452;54.174;12.092;2022-12-24T15:15:22;12.18;;;6.03;;
29504;SDS011;16452;54.174;12.092;2022-12-24T15:17:48;10.35;;;5.78;;
29504;SDS011;16452;54.174;12.092;2022-12-24T15:20:19;10.43;;;5.82;;
29504;SDS011;16452;54.174;12.092;2022-12-24T15:22:49;13.27;;;6.30;;
29504;SDS011;16452;54.174;12.092;2022-12-24T15:25:20;9.07;;;6.03;;
29504;SDS011;16452;54.174;12.092;2022-12-24T15:27:55;10.88;;;6.20;;
29504;SDS011;16452;54.174;12.092;2022-12-24T15:30:23;17.33;;;6.95;;
29504;SDS011;16452;54.174;12.092;2022-12-24T15:32:52;11.18;;;6.43;;
29504;SDS011;16452;54.174;12.092;2022-12-24T15:38:26;10.48;;;6.28;;
29504;SDS011;16452;54.174;12.092;2022-12-24T15:41:03;11.95;;;6.43;;
29504;SDS011;16452;54.174;12.092;2022-12-24T15:44:02;13.02;;;6.28;;
29504;SDS011;16452;54.174;12.092;2022-12-24T15:46:29;12.52;;;6.57;;
29504;SDS011;16452;54.174;12.092;2022-12-24T15:48:56;10.75;;;6.47;;
29504;SDS011;16452;54.174;12.092;2022-12-24T15:54:00;14.73;;;6.63;;
29504;SDS011;16452;54.174;12.092;2022-12-24T15:56:31;12.43;;;6.95;;
29504;SDS011;16452;54.174;12.092;2022-12-24T15:59:29;9.55;;;6.50;;
29504;SDS011;16452;54.174;12.092;2022-12-24T16:10:34;14.80;;;6.70;;
29504;SDS011;16452;54.174;12.092;2022-12-24T16:13:22;12.10;;;6.57;;
29504;SDS011;16452;54.174;12.092;2022-12-24T16:15:54;10.27;;;6.65;;
29504;SDS011;16452;54.174;12.092;2022-12-24T16:18:41;10.57;;;6.60;;
29504;SDS011;16452;54.174;12.092;2022-12-24T16:24:03;13.68;;;7.68;;
29504;SDS011;16452;54.174;12.092;2022-12-24T16:26:52;14.82;;;8.23;;
29504;SDS011;16452;54.174;12.092;2022-12-24T16:29:19;16.13;;;7.75;;
29504;SDS011;16452;54.174;12.092;2022-12-24T16:31:53;19.50;;;9.32;;
29504;SDS011;16452;54.174;12.092;2022-12-24T16:34:22;17.25;;;9.48;;
29504;SDS011;16452;54.174;12.092;2022-12-24T16:36:51;20.27;;;8.70;;
29504;SDS011;16452;54.174;12.092;2022-12-24T16:39:24;17.98;;;8.63;;
29504;SDS011;16452;54.174;12.092;2022-12-24T16:41:57;24.40;;;9.73;;
29504;SDS011;16452;54.174;12.092;2022-12-24T16:44:44;18.08;;;9.55;;
29504;SDS011;16452;54.174;12.092;2022-12-24T16:47:11;18.38;;;10.25;;
29504;SDS011;16452;54.174;12.092;2022-12-24T16:49:49;20.15;;;10.65;;
29504;SDS011;16452;54.174;12.092;2022-12-24T16:52:16;24.23;;;11.18;;
29504;SDS011;16452;54.174;12.092;2022-12-24T16:54:46;22.30;;;11.82;;
29504;SDS011;16452;54.174;12.092;2022-12-24T16:57:13;23.65;;;12.10;;